createdAt,value
2018-12-04T00:00:01.110Z,80.33
2018-12-04T00:02:37.463Z,78.87
2018-12-04T00:05:13.774Z,71.90
2018-12-04T00:07:49.944Z,68.40
2018-12-04T00:10:26.134Z,64.87
2018-12-04T00:13:02.170Z,63.93
2018-12-04T00:15:38.825Z,82.47
2018-12-04T00:18:15.038Z,73.07
2018-12-04T00:20:51.205Z,75.13
2018-12-04T00:23:27.380Z,65.43
2018-12-04T00:26:03.405Z,71.50
2018-12-04T00:28:39.670Z,60.57
2018-12-04T00:31:15.717Z,66.67
2018-12-04T00:33:51.918Z,76.50
2018-12-04T00:36:27.929Z,66.00
2018-12-04T00:39:05.036Z,72.10
2018-12-04T00:41:41.392Z,61.03
2018-12-04T00:44:17.404Z,61.37
2018-12-04T00:46:53.621Z,62.17
2018-12-04T00:49:29.845Z,66.53
2018-12-04T00:52:05.980Z,68.27
2018-12-04T00:54:43.563Z,58.27
2018-12-04T00:57:19.634Z,57.10
2018-12-04T00:59:55.840Z,62.83
2018-12-04T01:02:32.050Z,70.47
2018-12-04T01:05:08.326Z,62.33
2018-12-04T01:07:44.535Z,66.70
2018-12-04T01:10:20.810Z,60.20
2018-12-04T01:12:56.927Z,61.27
2018-12-04T01:15:33.309Z,62.00
2018-12-04T01:18:09.530Z,57.20
2018-12-04T01:20:45.975Z,54.80
2018-12-04T01:23:22.212Z,57.57
2018-12-04T01:25:58.264Z,58.60
2018-12-04T01:28:34.360Z,60.60
2018-12-04T01:31:10.570Z,64.63
2018-12-04T01:33:47.066Z,57.00
2018-12-04T01:36:23.252Z,61.53
2018-12-04T01:38:59.339Z,66.67
2018-12-04T01:41:35.804Z,77.00
2018-12-04T01:44:12.150Z,68.57
2018-12-04T01:46:48.189Z,67.70
2018-12-04T01:49:24.419Z,72.43
2018-12-04T01:52:00.635Z,71.33
2018-12-04T01:54:36.884Z,70.43
2018-12-04T01:57:14.596Z,68.60
2018-12-04T01:59:50.846Z,73.30
2018-12-04T02:02:27.124Z,69.20
2018-12-04T02:05:03.449Z,80.40
2018-12-04T02:07:39.675Z,73.73
2018-12-04T02:10:15.763Z,59.10
2018-12-04T02:12:51.893Z,74.93
2018-12-04T02:15:28.043Z,65.23
2018-12-04T02:18:05.177Z,70.23
2018-12-04T02:20:41.305Z,68.23
2018-12-04T02:23:17.580Z,65.70
2018-12-04T02:25:54.563Z,79.27
2018-12-04T02:28:35.533Z,86.30
2018-12-04T02:31:11.864Z,88.43
2018-12-04T02:33:48.069Z,95.80
2018-12-04T02:36:24.320Z,85.63
2018-12-04T02:39:00.544Z,95.00
2018-12-04T02:41:36.746Z,95.83
2018-12-04T02:44:12.989Z,96.63
2018-12-04T02:46:49.084Z,85.90
2018-12-04T02:49:25.744Z,82.60
2018-12-04T02:52:01.719Z,64.53
2018-12-04T02:54:37.981Z,78.20
2018-12-04T02:57:16.239Z,72.90
2018-12-04T02:59:52.243Z,77.80
2018-12-04T03:02:28.299Z,77.77
2018-12-04T03:05:04.817Z,83.17
2018-12-04T03:07:40.845Z,88.87
2018-12-04T03:10:17.050Z,89.30
2018-12-04T03:12:53.218Z,83.63
2018-12-04T03:15:29.626Z,98.57
2018-12-04T03:18:06.276Z,97.27
2018-12-04T03:20:42.480Z,88.47
2018-12-04T03:23:18.715Z,92.17
2018-12-04T03:25:55.074Z,92.40
2018-12-04T03:28:31.203Z,91.03
2018-12-04T03:31:07.376Z,97.70
2018-12-04T03:33:43.668Z,105.63
2018-12-04T03:36:19.940Z,108.00
2018-12-04T03:38:56.274Z,92.13
2018-12-04T03:41:32.303Z,82.03
2018-12-04T03:44:11.718Z,89.93
2018-12-04T03:46:48.232Z,93.73
2018-12-04T03:49:28.739Z,95.07
2018-12-04T03:52:04.758Z,97.87
2018-12-04T03:54:40.826Z,94.00
2018-12-04T03:57:17.035Z,84.07
2018-12-04T03:59:54.001Z,88.63
2018-12-04T04:02:30.196Z,82.00
2018-12-04T04:05:06.487Z,92.77
2018-12-04T04:07:42.731Z,92.97
2018-12-04T04:10:18.857Z,97.43
2018-12-04T04:12:55.021Z,115.87
2018-12-04T04:15:31.222Z,106.63
2018-12-04T04:18:07.365Z,98.50
2018-12-04T04:20:44.683Z,109.17
2018-12-04T04:23:20.717Z,138.83
2018-12-04T04:26:01.298Z,132.40
2018-12-04T04:28:41.791Z,117.33
2018-12-04T04:31:17.905Z,103.07
2018-12-04T04:33:54.010Z,98.13
2018-12-04T04:36:30.312Z,101.57
2018-12-04T04:39:08.247Z,108.10
2018-12-04T04:41:44.366Z,108.83
2018-12-04T04:44:20.670Z,108.53
2018-12-04T04:46:57.150Z,101.53
2018-12-04T04:49:33.258Z,121.87
2018-12-04T04:52:09.399Z,127.47
2018-12-04T04:54:45.486Z,102.80
2018-12-04T04:57:21.857Z,101.53
2018-12-04T04:59:58.148Z,91.83
2018-12-04T05:02:34.446Z,101.40
2018-12-04T05:05:10.678Z,94.37
2018-12-04T05:07:51.248Z,101.60
2018-12-04T05:10:27.704Z,102.20
2018-12-04T05:13:08.688Z,137.97
2018-12-04T05:15:44.799Z,259.00
2018-12-04T05:18:20.957Z,167.10
2018-12-04T05:20:57.187Z,151.97
2018-12-04T05:23:33.558Z,132.43
2018-12-04T05:26:11.289Z,122.20
2018-12-04T05:28:48.210Z,116.43
2018-12-04T05:31:24.705Z,131.13
2018-12-04T05:34:02.727Z,139.43
2018-12-04T05:36:43.343Z,112.00
2018-12-04T05:39:27.247Z,113.97
2018-12-04T05:42:10.781Z,140.40
2018-12-04T05:44:47.662Z,133.37
2018-12-04T05:47:26.119Z,135.87
2018-12-04T05:50:04.506Z,135.93
2018-12-04T05:52:47.889Z,148.80
2018-12-04T05:55:29.261Z,172.97
2018-12-04T05:58:12.011Z,167.27
2018-12-04T06:00:48.314Z,171.97
2018-12-04T06:03:24.620Z,190.13
2018-12-04T06:06:00.740Z,225.47
2018-12-04T06:08:36.923Z,415.30
2018-12-04T06:11:13.124Z,364.47
2018-12-04T06:13:53.442Z,262.77
2018-12-04T06:16:29.551Z,244.80
2018-12-04T06:19:05.710Z,221.27
2018-12-04T06:21:41.861Z,151.17
2018-12-04T06:24:18.053Z,104.87
2018-12-04T06:26:54.196Z,103.83
2018-12-04T06:29:30.352Z,91.23
2018-12-04T06:32:06.501Z,92.47
2018-12-04T06:34:42.633Z,100.07
2018-12-04T06:37:18.768Z,114.30
2018-12-04T06:40:00.062Z,121.73
2018-12-04T06:42:40.626Z,122.67
2018-12-04T06:45:20.947Z,139.77
2018-12-04T06:47:59.616Z,150.73
2018-12-04T06:50:35.831Z,157.63
2018-12-04T06:53:12.068Z,152.13
2018-12-04T06:55:48.356Z,171.40
2018-12-04T06:58:24.642Z,193.70
2018-12-04T07:01:00.677Z,196.83
2018-12-04T07:03:36.883Z,172.50
2018-12-04T07:06:13.104Z,164.30
2018-12-04T07:08:49.209Z,148.60
2018-12-04T07:11:25.322Z,144.33
2018-12-04T07:14:01.419Z,193.50
2018-12-04T07:16:37.697Z,190.70
2018-12-04T07:19:13.831Z,190.20
2018-12-04T07:21:49.904Z,168.53
2018-12-04T07:24:25.827Z,168.23
2018-12-04T07:27:02.017Z,177.93
2018-12-04T07:29:38.253Z,205.97
2018-12-04T07:32:14.439Z,189.87
2018-12-04T07:34:50.542Z,193.80
2018-12-04T07:37:26.751Z,187.63
2018-12-04T07:40:02.799Z,211.50
2018-12-04T07:42:39.014Z,219.80
2018-12-04T07:45:15.197Z,238.43
2018-12-04T07:47:51.879Z,286.53
2018-12-04T07:50:33.778Z,244.33
2018-12-04T07:53:09.838Z,258.70
2018-12-04T07:55:46.141Z,248.30
2018-12-04T07:58:22.405Z,194.00
2018-12-04T08:00:59.419Z,178.97
2018-12-04T08:03:35.691Z,205.00
2018-12-04T08:06:12.404Z,202.50
2018-12-04T08:08:48.428Z,152.30
2018-12-04T08:11:24.508Z,120.97
2018-12-04T08:14:00.715Z,81.93
2018-12-04T08:16:36.887Z,100.87
2018-12-04T08:19:12.964Z,98.30
2018-12-04T08:21:49.155Z,107.87
2018-12-04T08:24:25.128Z,107.50
2018-12-04T08:27:01.305Z,91.00
2018-12-04T08:29:37.524Z,91.73
2018-12-04T08:32:13.743Z,86.57
2018-12-04T08:34:49.901Z,148.60
2018-12-04T08:37:25.948Z,98.40
2018-12-04T08:40:02.013Z,101.13
2018-12-04T08:42:38.151Z,86.07
2018-12-04T08:45:14.264Z,89.47
2018-12-04T08:47:50.343Z,87.70
2018-12-04T08:50:26.537Z,104.33
2018-12-04T08:53:02.722Z,102.73
2018-12-04T08:55:38.696Z,113.07
2018-12-04T08:58:14.810Z,130.70
2018-12-04T09:00:51.047Z,189.47
2018-12-04T09:03:27.123Z,96.33
2018-12-04T09:06:03.168Z,120.80
2018-12-04T09:08:39.413Z,87.30
2018-12-04T09:11:15.609Z,186.50
2018-12-04T09:13:51.763Z,113.80
2018-12-04T09:16:27.800Z,123.00
2018-12-04T09:19:03.921Z,66.73
2018-12-04T09:21:40.304Z,118.13
2018-12-04T09:24:20.937Z,83.10
2018-12-04T09:26:56.929Z,79.33
2018-12-04T09:29:33.153Z,96.87
2018-12-04T09:32:09.207Z,88.60
2018-12-04T09:34:45.539Z,76.93
2018-12-04T09:37:21.555Z,117.30
2018-12-04T09:39:57.773Z,94.87
2018-12-04T09:42:33.792Z,143.13
2018-12-04T09:45:10.207Z,121.23
2018-12-04T09:47:46.256Z,147.60
2018-12-04T09:50:22.279Z,125.03
2018-12-04T09:52:58.300Z,128.20
2018-12-04T09:55:34.500Z,133.27
2018-12-04T09:58:11.591Z,124.23
2018-12-04T10:00:47.871Z,134.50
2018-12-04T10:03:23.958Z,132.90
2018-12-04T10:05:59.996Z,140.97
2018-12-04T10:08:36.022Z,152.83
2018-12-04T10:11:12.371Z,153.00
2018-12-04T10:13:48.570Z,142.77
2018-12-04T10:16:24.619Z,124.97
2018-12-04T10:19:01.173Z,114.27
2018-12-04T10:21:37.167Z,125.67
2018-12-04T10:24:13.402Z,129.77
2018-12-04T10:26:53.564Z,135.90
2018-12-04T10:29:29.751Z,130.37
2018-12-04T10:32:05.990Z,154.27
2018-12-04T10:34:42.096Z,145.53
2018-12-04T10:37:18.152Z,136.77
2018-12-04T10:39:54.352Z,142.17
2018-12-04T10:42:31.257Z,124.10
2018-12-04T10:45:08.046Z,119.60
2018-12-04T10:47:44.063Z,115.00
2018-12-04T10:50:20.083Z,137.17
2018-12-04T10:52:56.151Z,122.27
2018-12-04T10:55:32.311Z,141.00
2018-12-04T10:58:08.446Z,135.00
2018-12-04T11:00:49.367Z,142.33
2018-12-04T11:03:30.404Z,117.00
2018-12-04T11:06:07.301Z,119.77
2018-12-04T11:08:43.339Z,112.17
2018-12-04T11:11:19.318Z,118.87
2018-12-04T11:13:55.400Z,127.60
2018-12-04T11:16:31.476Z,132.17
2018-12-04T11:19:07.630Z,122.80
2018-12-04T11:21:43.689Z,125.10
2018-12-04T11:24:19.894Z,129.47
2018-12-04T11:26:55.915Z,127.00
2018-12-04T11:29:32.061Z,142.63
2018-12-04T11:32:08.071Z,134.63
2018-12-04T11:34:44.123Z,132.43
2018-12-04T11:37:20.330Z,142.37
2018-12-04T11:39:56.374Z,139.47
2018-12-04T11:42:32.375Z,166.97
2018-12-04T11:45:08.461Z,164.57
2018-12-04T11:47:44.662Z,180.17
2018-12-04T11:50:20.761Z,189.80
2018-12-04T11:52:56.919Z,185.40
2018-12-04T11:55:33.119Z,195.50
2018-12-04T11:58:09.351Z,188.60
2018-12-04T12:00:45.607Z,184.33
2018-12-04T12:03:21.799Z,162.13
2018-12-04T12:05:57.836Z,159.13
2018-12-04T12:08:38.406Z,163.77
2018-12-04T12:11:14.611Z,172.60
2018-12-04T12:13:50.824Z,146.90
2018-12-04T12:16:27.024Z,175.40
2018-12-04T12:19:03.245Z,163.57
2018-12-04T12:21:39.357Z,151.20
2018-12-04T12:24:15.462Z,155.50
2018-12-04T12:26:51.407Z,150.30
2018-12-04T12:29:27.502Z,145.67
2018-12-04T12:32:03.685Z,141.80
2018-12-04T12:34:39.747Z,138.93
2018-12-04T12:37:15.991Z,111.13
2018-12-04T12:39:52.158Z,104.13
2018-12-04T12:42:28.220Z,147.77
2018-12-04T12:45:04.501Z,144.47
2018-12-04T12:47:40.800Z,146.90
2018-12-04T12:50:17.166Z,157.43
2018-12-04T12:52:53.338Z,150.43
2018-12-04T12:55:29.601Z,138.80
2018-12-04T12:58:05.890Z,120.67
2018-12-04T13:00:42.027Z,132.67
2018-12-04T13:03:18.588Z,112.23
2018-12-04T13:05:58.764Z,100.10
2018-12-04T13:08:34.911Z,130.90
2018-12-04T13:11:11.183Z,116.77
2018-12-04T13:13:47.309Z,130.20
2018-12-04T13:16:23.454Z,204.00
2018-12-04T13:18:59.690Z,292.70
2018-12-04T13:21:35.997Z,263.90
2018-12-04T13:24:12.215Z,286.90
2018-12-04T13:26:48.251Z,271.10
2018-12-04T13:29:24.232Z,309.00
2018-12-04T13:32:00.282Z,260.20
2018-12-04T13:34:36.281Z,241.57
2018-12-04T13:37:12.520Z,218.37
2018-12-04T13:39:48.736Z,192.07
2018-12-04T13:42:25.050Z,185.43
2018-12-04T13:45:01.280Z,231.10
2018-12-04T13:47:38.343Z,249.57
2018-12-04T13:50:14.523Z,243.47
2018-12-04T13:52:50.781Z,263.30
2018-12-04T13:55:27.539Z,276.83
2018-12-04T13:58:03.590Z,216.93
2018-12-04T14:00:39.854Z,297.43
2018-12-04T14:03:16.122Z,294.57
2018-12-04T14:05:52.700Z,302.87
2018-12-04T14:08:28.460Z,264.73
2018-12-04T14:11:04.496Z,273.17
2018-12-04T14:13:40.723Z,245.93
2018-12-04T14:16:16.802Z,239.00
2018-12-04T14:18:52.850Z,246.57
2018-12-04T14:21:30.103Z,292.83
2018-12-04T14:24:06.194Z,273.87
2018-12-04T14:26:42.390Z,205.23
2018-12-04T14:29:18.438Z,196.80
2018-12-04T14:31:54.511Z,208.97
2018-12-04T14:34:30.626Z,203.43
2018-12-04T14:37:06.965Z,162.67
2018-12-04T14:39:43.191Z,161.77
2018-12-04T14:42:19.257Z,176.33
2018-12-04T14:44:55.441Z,144.17
2018-12-04T14:47:31.677Z,123.93
2018-12-04T14:50:08.896Z,129.80
2018-12-04T14:52:45.129Z,154.40
2018-12-04T14:55:21.802Z,146.83
2018-12-04T14:57:57.897Z,156.50
2018-12-04T15:00:34.105Z,172.20
2018-12-04T15:03:10.334Z,146.13
2018-12-04T15:05:47.428Z,153.67
2018-12-04T15:08:23.965Z,240.43
2018-12-04T15:11:00.136Z,296.60
2018-12-04T15:13:36.328Z,290.37
2018-12-04T15:16:12.400Z,392.37
2018-12-04T15:18:48.575Z,333.83
2018-12-04T15:21:24.902Z,343.30
2018-12-04T15:24:05.544Z,322.90
2018-12-04T15:26:41.618Z,286.30
2018-12-04T15:29:17.861Z,366.80
2018-12-04T15:31:50.951Z,345.13
2018-12-04T15:34:22.112Z,374.30
2018-12-04T15:36:56.584Z,379.23
2018-12-04T15:39:25.361Z,532.77
2018-12-04T15:41:56.820Z,429.07
2018-12-04T15:44:28.158Z,351.07
2018-12-04T15:46:59.278Z,419.77
2018-12-04T15:49:30.376Z,397.43
2018-12-04T15:52:01.476Z,203.00
2018-12-04T15:54:35.215Z,229.20
2018-12-04T15:57:06.222Z,204.10
2018-12-04T15:59:37.334Z,206.57
2018-12-04T16:02:08.956Z,240.80
2018-12-04T16:04:40.088Z,222.23
2018-12-04T16:07:11.459Z,253.63
2018-12-04T16:09:42.568Z,270.67
2018-12-04T16:12:13.644Z,396.73
2018-12-04T16:14:44.723Z,503.87
2018-12-04T16:17:15.835Z,457.40
2018-12-04T16:19:47.079Z,416.33
2018-12-04T16:22:18.110Z,296.23
2018-12-04T16:24:49.232Z,285.47
2018-12-04T16:27:20.402Z,241.77
2018-12-04T16:29:52.468Z,174.50
2018-12-04T16:32:23.501Z,157.67
2018-12-04T16:34:54.586Z,180.93
2018-12-04T16:37:25.670Z,243.53
2018-12-04T16:39:57.758Z,156.27
2018-12-04T16:42:28.776Z,199.60
2018-12-04T16:44:59.870Z,172.00
2018-12-04T16:47:31.404Z,155.07
2018-12-04T16:50:02.528Z,200.83
2018-12-04T16:52:33.592Z,213.33
2018-12-04T16:55:05.063Z,320.10
2018-12-04T16:57:36.178Z,181.63
2018-12-04T17:00:09.045Z,149.27
2018-12-04T17:02:40.052Z,180.30
2018-12-04T17:05:11.688Z,202.53
2018-12-04T17:07:43.001Z,312.93
2018-12-04T17:10:14.150Z,268.33
2018-12-04T17:12:45.194Z,245.40
2018-12-04T17:15:16.353Z,407.97
2018-12-04T17:17:48.244Z,270.83
2018-12-04T17:20:19.382Z,201.60
2018-12-04T17:22:58.669Z,167.90
2018-12-04T17:25:29.881Z,167.40
2018-12-04T17:28:04.114Z,154.70
2018-12-04T17:30:35.170Z,159.53
2018-12-04T17:33:06.200Z,175.50
2018-12-04T17:35:37.267Z,168.47
2018-12-04T17:38:08.412Z,165.80
2018-12-04T17:40:39.537Z,163.33
2018-12-04T17:43:10.642Z,155.63
2018-12-04T17:45:41.751Z,160.63
2018-12-04T17:48:12.871Z,171.50
2018-12-04T17:50:43.947Z,166.10
2018-12-04T17:53:19.954Z,214.17
2018-12-04T17:55:51.111Z,286.17
2018-12-04T17:58:22.277Z,296.47
2018-12-04T18:00:53.443Z,297.73
2018-12-04T18:03:28.778Z,342.37
2018-12-04T18:05:59.891Z,310.30
2018-12-04T18:08:31.063Z,317.80
2018-12-04T18:11:02.266Z,307.73
2018-12-04T18:13:33.378Z,279.93
2018-12-04T18:16:05.203Z,211.87
2018-12-04T18:18:36.328Z,218.80
2018-12-04T18:21:07.441Z,219.77
2018-12-04T18:23:38.507Z,205.10
2018-12-04T18:26:09.630Z,196.73
2018-12-04T18:28:40.701Z,209.93
2018-12-04T18:31:12.279Z,201.93
2018-12-04T18:33:43.339Z,203.23
2018-12-04T18:36:14.919Z,207.70
2018-12-04T18:38:46.010Z,201.13
2018-12-04T18:41:17.154Z,199.40
2018-12-04T18:43:48.294Z,199.47
2018-12-04T18:46:19.819Z,278.37
2018-12-04T18:48:50.997Z,413.40
2018-12-04T18:51:22.491Z,383.97
2018-12-04T18:53:53.578Z,364.27
2018-12-04T18:56:24.752Z,363.33
2018-12-04T18:58:55.865Z,385.83
2018-12-04T19:01:26.981Z,407.77
2018-12-04T19:03:59.216Z,501.17
2018-12-04T19:06:31.407Z,508.63
2018-12-04T19:09:08.552Z,441.97
2018-12-04T19:11:43.763Z,296.17
2018-12-04T19:14:16.001Z,319.07
2018-12-04T19:16:47.646Z,294.67
2018-12-04T19:19:21.168Z,277.00
2018-12-04T19:21:53.517Z,312.87
2018-12-04T19:24:25.052Z,379.03
2018-12-04T19:26:58.964Z,350.90
2018-12-04T19:29:30.580Z,402.97
2018-12-04T19:32:02.808Z,393.97
2018-12-04T19:34:47.653Z,402.47
2018-12-04T19:37:19.735Z,402.23
2018-12-04T19:39:55.181Z,440.03
2018-12-04T19:43:08.286Z,459.65
2018-12-04T19:45:40.796Z,516.60
2018-12-04T19:48:12.985Z,524.60
2018-12-04T19:50:45.046Z,563.23
2018-12-04T19:53:16.707Z,524.27
2018-12-04T19:55:55.098Z,563.23
2018-12-04T19:58:26.634Z,421.67
2018-12-04T20:00:58.374Z,359.53
2018-12-04T20:03:29.774Z,305.10
2018-12-04T20:06:01.111Z,369.83
2018-12-04T20:08:37.359Z,422.13
2018-12-04T20:11:08.638Z,365.63
2018-12-04T20:13:40.104Z,333.17
2018-12-04T20:16:11.205Z,326.60
2018-12-04T20:18:42.358Z,299.33
2018-12-04T20:21:13.515Z,316.90
2018-12-04T20:23:44.632Z,344.40
2018-12-04T20:26:15.644Z,270.03
2018-12-04T20:28:46.725Z,243.10
2018-12-04T20:31:17.882Z,267.67
2018-12-04T20:33:49.790Z,294.73
2018-12-04T20:36:20.840Z,249.07
2018-12-04T20:38:52.111Z,241.93
2018-12-04T20:41:23.906Z,338.93
2018-12-04T20:43:55.391Z,341.02
2018-12-04T20:46:26.511Z,313.73
2018-12-04T20:48:58.945Z,326.87
2018-12-04T20:51:30.215Z,338.43
2018-12-04T20:54:01.443Z,517.33
2018-12-04T20:56:32.749Z,442.07
2018-12-04T20:59:10.889Z,402.27
2018-12-04T21:01:47.266Z,347.57
2018-12-04T21:04:23.409Z,316.93
2018-12-04T21:06:59.440Z,336.03
2018-12-04T21:09:36.398Z,379.37
2018-12-04T21:12:12.623Z,354.47
2018-12-04T21:14:48.845Z,367.20
2018-12-04T21:17:24.969Z,363.10
2018-12-04T21:20:01.152Z,357.63
2018-12-04T21:22:37.271Z,328.17
2018-12-04T21:25:13.363Z,323.83
2018-12-04T21:27:54.397Z,300.87
2018-12-04T21:30:35.540Z,380.50
2018-12-04T21:33:17.775Z,407.13
2018-12-04T21:35:58.811Z,201.77
2018-12-04T21:38:44.783Z,182.63
2018-12-04T21:41:26.512Z,193.70
2018-12-04T21:44:08.301Z,197.20
2018-12-04T21:46:50.807Z,204.33
2018-12-04T21:49:29.334Z,204.03
2018-12-04T21:52:05.909Z,230.57
2018-12-04T21:54:44.376Z,228.10
2018-12-04T21:57:21.216Z,222.47
2018-12-04T21:59:58.609Z,234.77
2018-12-04T22:02:36.908Z,273.20
2018-12-04T22:05:14.626Z,271.30
2018-12-04T22:07:52.465Z,254.77
2018-12-04T22:10:30.829Z,260.30
2018-12-04T22:13:11.715Z,235.73
2018-12-04T22:15:49.727Z,378.03
2018-12-04T22:18:27.472Z,302.37
2018-12-04T22:21:04.197Z,221.60
2018-12-04T22:23:45.780Z,182.90
2018-12-04T22:26:24.368Z,159.80
2018-12-04T22:29:01.904Z,144.63
2018-12-04T22:31:39.144Z,185.10
2018-12-04T22:34:17.007Z,155.33
2018-12-04T22:36:56.357Z,153.03
2018-12-04T22:39:39.087Z,131.70
2018-12-04T22:42:17.479Z,129.57
2018-12-04T22:44:55.299Z,141.53
2018-12-04T22:47:33.071Z,154.33
2018-12-04T22:50:10.261Z,164.20
2018-12-04T22:52:47.259Z,145.23
2018-12-04T22:55:24.086Z,143.43
2018-12-04T22:58:00.916Z,139.73
2018-12-04T23:00:44.724Z,107.27
2018-12-04T23:03:22.087Z,134.47
2018-12-04T23:05:58.739Z,137.93
2018-12-04T23:08:40.396Z,136.73
2018-12-04T23:11:17.649Z,140.33
2018-12-04T23:13:55.322Z,139.43
2018-12-04T23:16:33.794Z,122.53
2018-12-04T23:19:10.487Z,129.87
2018-12-04T23:21:47.149Z,127.90
2018-12-04T23:24:23.817Z,123.47
2018-12-04T23:27:01.202Z,129.73
2018-12-04T23:29:38.764Z,133.27
2018-12-04T23:32:17.287Z,143.70
2018-12-04T23:34:53.299Z,235.77
2018-12-04T23:37:29.376Z,181.07
2018-12-04T23:40:09.505Z,206.53
2018-12-04T23:42:46.320Z,187.97
2018-12-04T23:45:23.081Z,179.30
2018-12-04T23:48:00.950Z,145.93
2018-12-04T23:50:39.187Z,165.20
2018-12-04T23:53:15.753Z,158.60
2018-12-04T23:55:53.296Z,144.97
2018-12-04T23:58:30.687Z,138.53
